sensor_id;sensor_type;location;lat;lon;timestamp;P1;durP1;ratioP1;P2;durP2;ratioP2
75218;SDS011;63801;49.414;19.474;2023-08-06T00:01:21;20.73;;;14.40;;
75218;SDS011;63801;49.414;19.474;2023-08-06T00:03:22;20.27;;;13.25;;
75218;SDS011;63801;49.414;19.474;2023-08-06T00:05:23;20.00;;;12.98;;
75218;SDS011;63801;49.414;19.474;2023-08-06T00:07:23;19.98;;;13.25;;
75218;SDS011;63801;49.414;19.474;2023-08-06T00:09:23;21.58;;;12.43;;
75218;SDS011;63801;49.414;19.474;2023-08-06T00:11:24;18.88;;;13.20;;
75218;SDS011;63801;49.414;19.474;2023-08-06T00:13:24;19.75;;;12.73;;
75218;SDS011;63801;49.414;19.474;2023-08-06T00:15:24;18.52;;;12.65;;
75218;SDS011;63801;49.414;19.474;2023-08-06T00:17:25;22.02;;;13.38;;
75218;SDS011;63801;49.414;19.474;2023-08-06T00:19:25;21.88;;;13.68;;
75218;SDS011;63801;49.414;19.474;2023-08-06T00:21:26;19.60;;;13.32;;
75218;SDS011;63801;49.414;19.474;2023-08-06T00:23:26;20.27;;;13.40;;
75218;SDS011;63801;49.414;19.474;2023-08-06T00:25:26;23.58;;;13.20;;
75218;SDS011;63801;49.414;19.474;2023-08-06T00:27:27;22.75;;;13.38;;
75218;SDS011;63801;49.414;19.474;2023-08-06T00:29:28;22.10;;;13.52;;
75218;SDS011;63801;49.414;19.474;2023-08-06T00:31:28;21.98;;;13.20;;
75218;SDS011;63801;49.414;19.474;2023-08-06T00:33:28;23.17;;;14.02;;
75218;SDS011;63801;49.414;19.474;2023-08-06T00:35:29;21.30;;;12.88;;
75218;SDS011;63801;49.414;19.474;2023-08-06T00:37:30;20.38;;;12.82;;
75218;SDS011;63801;49.414;19.474;2023-08-06T00:39:30;21.33;;;12.90;;
75218;SDS011;63801;49.414;19.474;2023-08-06T00:41:30;19.88;;;13.50;;
75218;SDS011;63801;49.414;19.474;2023-08-06T00:43:31;20.67;;;13.52;;
75218;SDS011;63801;49.414;19.474;2023-08-06T00:45:31;22.30;;;13.70;;
75218;SDS011;63801;49.414;19.474;2023-08-06T00:47:35;19.63;;;13.05;;
75218;SDS011;63801;49.414;19.474;2023-08-06T00:49:36;20.52;;;13.68;;
75218;SDS011;63801;49.414;19.474;2023-08-06T00:51:36;20.40;;;13.32;;
75218;SDS011;63801;49.414;19.474;2023-08-06T00:53:37;22.73;;;12.82;;
75218;SDS011;63801;49.414;19.474;2023-08-06T00:55:39;19.92;;;12.63;;
75218;SDS011;63801;49.414;19.474;2023-08-06T00:57:40;19.90;;;12.70;;
75218;SDS011;63801;49.414;19.474;2023-08-06T00:59:40;18.48;;;12.30;;
75218;SDS011;63801;49.414;19.474;2023-08-06T01:01:41;19.35;;;12.73;;
75218;SDS011;63801;49.414;19.474;2023-08-06T01:03:41;23.02;;;12.50;;
75218;SDS011;63801;49.414;19.474;2023-08-06T01:05:42;19.85;;;12.95;;
75218;SDS011;63801;49.414;19.474;2023-08-06T01:07:51;22.98;;;13.63;;
75218;SDS011;63801;49.414;19.474;2023-08-06T01:14:37;20.83;;;12.73;;
75218;SDS011;63801;49.414;19.474;2023-08-06T01:16:49;21.90;;;13.23;;
75218;SDS011;63801;49.414;19.474;2023-08-06T01:18:51;20.60;;;12.63;;
75218;SDS011;63801;49.414;19.474;2023-08-06T01:20:51;18.98;;;12.95;;
75218;SDS011;63801;49.414;19.474;2023-08-06T01:22:52;20.10;;;13.05;;
75218;SDS011;63801;49.414;19.474;2023-08-06T01:24:52;20.73;;;13.05;;
75218;SDS011;63801;49.414;19.474;2023-08-06T01:31:07;21.15;;;12.50;;
75218;SDS011;63801;49.414;19.474;2023-08-06T01:33:16;24.25;;;13.13;;
75218;SDS011;63801;49.414;19.474;2023-08-06T01:35:21;22.23;;;12.40;;
75218;SDS011;63801;49.414;19.474;2023-08-06T01:37:22;20.00;;;11.98;;
75218;SDS011;63801;49.414;19.474;2023-08-06T01:39:23;20.05;;;12.20;;
75218;SDS011;63801;49.414;19.474;2023-08-06T01:41:23;25.65;;;12.18;;
75218;SDS011;63801;49.414;19.474;2023-08-06T01:43:24;17.90;;;11.88;;
75218;SDS011;63801;49.414;19.474;2023-08-06T01:45:24;18.60;;;11.63;;
75218;SDS011;63801;49.414;19.474;2023-08-06T01:47:24;18.48;;;11.85;;
75218;SDS011;63801;49.414;19.474;2023-08-06T01:49:25;18.73;;;11.52;;
75218;SDS011;63801;49.414;19.474;2023-08-06T01:51:25;20.67;;;11.27;;
75218;SDS011;63801;49.414;19.474;2023-08-06T01:53:25;17.55;;;11.32;;
75218;SDS011;63801;49.414;19.474;2023-08-06T01:55:26;19.52;;;11.27;;
75218;SDS011;63801;49.414;19.474;2023-08-06T01:57:26;15.75;;;10.07;;
75218;SDS011;63801;49.414;19.474;2023-08-06T01:59:26;16.50;;;10.27;;
75218;SDS011;63801;49.414;19.474;2023-08-06T02:01:26;15.82;;;10.38;;
75218;SDS011;63801;49.414;19.474;2023-08-06T02:03:27;15.15;;;9.75;;
75218;SDS011;63801;49.414;19.474;2023-08-06T02:05:27;17.38;;;10.13;;
75218;SDS011;63801;49.414;19.474;2023-08-06T02:07:28;17.65;;;10.38;;
75218;SDS011;63801;49.414;19.474;2023-08-06T02:09:28;15.20;;;9.55;;
75218;SDS011;63801;49.414;19.474;2023-08-06T02:11:28;15.43;;;10.07;;
75218;SDS011;63801;49.414;19.474;2023-08-06T02:13:28;15.10;;;10.15;;
75218;SDS011;63801;49.414;19.474;2023-08-06T02:15:29;15.55;;;9.85;;
75218;SDS011;63801;49.414;19.474;2023-08-06T02:17:30;17.40;;;10.63;;
75218;SDS011;63801;49.414;19.474;2023-08-06T02:19:30;15.57;;;9.35;;
75218;SDS011;63801;49.414;19.474;2023-08-06T02:21:30;15.45;;;9.25;;
75218;SDS011;63801;49.414;19.474;2023-08-06T02:23:31;16.42;;;9.30;;
75218;SDS011;63801;49.414;19.474;2023-08-06T02:25:31;14.07;;;9.65;;
75218;SDS011;63801;49.414;19.474;2023-08-06T02:27:31;14.98;;;9.77;;
75218;SDS011;63801;49.414;19.474;2023-08-06T02:29:32;14.40;;;9.45;;
75218;SDS011;63801;49.414;19.474;2023-08-06T02:31:32;14.63;;;9.13;;
75218;SDS011;63801;49.414;19.474;2023-08-06T02:33:32;16.23;;;10.43;;
75218;SDS011;63801;49.414;19.474;2023-08-06T02:35:32;20.08;;;10.18;;
75218;SDS011;63801;49.414;19.474;2023-08-06T02:37:33;14.15;;;9.60;;
75218;SDS011;63801;49.414;19.474;2023-08-06T02:39:34;13.18;;;8.73;;
75218;SDS011;63801;49.414;19.474;2023-08-06T02:41:35;14.63;;;9.52;;
75218;SDS011;63801;49.414;19.474;2023-08-06T02:43:36;16.13;;;9.75;;
75218;SDS011;63801;49.414;19.474;2023-08-06T02:45:36;14.88;;;8.93;;
75218;SDS011;63801;49.414;19.474;2023-08-06T02:47:36;15.75;;;9.10;;
75218;SDS011;63801;49.414;19.474;2023-08-06T02:49:37;16.25;;;8.90;;
75218;SDS011;63801;49.414;19.474;2023-08-06T02:51:37;15.57;;;8.77;;
75218;SDS011;63801;49.414;19.474;2023-08-06T02:53:37;15.80;;;9.93;;
75218;SDS011;63801;49.414;19.474;2023-08-06T02:55:37;15.75;;;9.52;;
75218;SDS011;63801;49.414;19.474;2023-08-06T02:57:45;14.57;;;9.30;;
75218;SDS011;63801;49.414;19.474;2023-08-06T02:59:45;15.00;;;9.00;;
75218;SDS011;63801;49.414;19.474;2023-08-06T03:01:45;16.42;;;9.75;;
75218;SDS011;63801;49.414;19.474;2023-08-06T03:03:46;17.17;;;9.77;;
75218;SDS011;63801;49.414;19.474;2023-08-06T03:05:53;14.65;;;9.38;;
75218;SDS011;63801;49.414;19.474;2023-08-06T03:07:54;13.95;;;9.10;;
75218;SDS011;63801;49.414;19.474;2023-08-06T03:09:54;18.20;;;10.02;;
75218;SDS011;63801;49.414;19.474;2023-08-06T03:11:54;16.45;;;10.52;;
75218;SDS011;63801;49.414;19.474;2023-08-06T03:13:55;16.55;;;10.18;;
75218;SDS011;63801;49.414;19.474;2023-08-06T03:15:55;16.02;;;10.07;;
75218;SDS011;63801;49.414;19.474;2023-08-06T03:17:57;18.60;;;10.63;;
75218;SDS011;63801;49.414;19.474;2023-08-06T03:19:57;18.05;;;11.07;;
75218;SDS011;63801;49.414;19.474;2023-08-06T03:21:57;15.70;;;9.73;;
75218;SDS011;63801;49.414;19.474;2023-08-06T03:23:58;16.27;;;10.80;;
75218;SDS011;63801;49.414;19.474;2023-08-06T03:26:02;17.08;;;10.20;;
75218;SDS011;63801;49.414;19.474;2023-08-06T03:28:02;14.55;;;9.45;;
75218;SDS011;63801;49.414;19.474;2023-08-06T03:30:03;15.73;;;9.40;;
75218;SDS011;63801;49.414;19.474;2023-08-06T03:32:03;14.18;;;9.73;;
75218;SDS011;63801;49.414;19.474;2023-08-06T03:34:04;13.18;;;8.85;;
75218;SDS011;63801;49.414;19.474;2023-08-06T03:36:05;12.68;;;9.02;;
75218;SDS011;63801;49.414;19.474;2023-08-06T03:38:06;18.05;;;9.45;;
75218;SDS011;63801;49.414;19.474;2023-08-06T03:40:06;17.20;;;9.98;;
75218;SDS011;63801;49.414;19.474;2023-08-06T03:42:07;19.17;;;10.80;;
75218;SDS011;63801;49.414;19.474;2023-08-06T03:44:07;18.10;;;10.95;;
75218;SDS011;63801;49.414;19.474;2023-08-06T03:46:08;17.13;;;11.32;;
75218;SDS011;63801;49.414;19.474;2023-08-06T03:48:08;18.73;;;11.68;;
75218;SDS011;63801;49.414;19.474;2023-08-06T03:50:09;20.70;;;11.73;;
75218;SDS011;63801;49.414;19.474;2023-08-06T03:52:09;20.30;;;11.48;;
75218;SDS011;63801;49.414;19.474;2023-08-06T03:54:10;18.55;;;11.43;;
75218;SDS011;63801;49.414;19.474;2023-08-06T03:56:10;21.67;;;12.30;;
75218;SDS011;63801;49.414;19.474;2023-08-06T03:58:10;19.50;;;10.95;;
75218;SDS011;63801;49.414;19.474;2023-08-06T04:00:11;17.63;;;11.13;;
75218;SDS011;63801;49.414;19.474;2023-08-06T04:02:12;19.17;;;12.48;;
75218;SDS011;63801;49.414;19.474;2023-08-06T04:04:12;23.08;;;11.07;;
75218;SDS011;63801;49.414;19.474;2023-08-06T04:06:13;21.15;;;10.93;;
75218;SDS011;63801;49.414;19.474;2023-08-06T04:08:13;18.42;;;9.20;;
75218;SDS011;63801;49.414;19.474;2023-08-06T04:10:13;16.38;;;8.55;;
75218;SDS011;63801;49.414;19.474;2023-08-06T04:12:14;15.80;;;8.20;;
75218;SDS011;63801;49.414;19.474;2023-08-06T04:14:14;12.05;;;7.75;;
75218;SDS011;63801;49.414;19.474;2023-08-06T04:16:15;11.85;;;7.57;;
75218;SDS011;63801;49.414;19.474;2023-08-06T04:18:15;9.70;;;6.60;;
75218;SDS011;63801;49.414;19.474;2023-08-06T04:20:17;11.25;;;7.32;;
75218;SDS011;63801;49.414;19.474;2023-08-06T04:22:17;12.77;;;7.85;;
75218;SDS011;63801;49.414;19.474;2023-08-06T04:24:18;11.93;;;7.18;;
75218;SDS011;63801;49.414;19.474;2023-08-06T04:26:18;13.30;;;8.15;;
75218;SDS011;63801;49.414;19.474;2023-08-06T04:28:19;14.27;;;8.23;;
75218;SDS011;63801;49.414;19.474;2023-08-06T04:30:19;15.38;;;9.60;;
75218;SDS011;63801;49.414;19.474;2023-08-06T04:32:19;12.90;;;8.55;;
75218;SDS011;63801;49.414;19.474;2023-08-06T04:34:20;12.98;;;8.20;;
75218;SDS011;63801;49.414;19.474;2023-08-06T04:36:20;12.60;;;8.50;;
75218;SDS011;63801;49.414;19.474;2023-08-06T04:38:20;13.88;;;8.18;;
75218;SDS011;63801;49.414;19.474;2023-08-06T04:40:21;14.02;;;8.70;;
75218;SDS011;63801;49.414;19.474;2023-08-06T04:42:21;12.70;;;7.82;;
75218;SDS011;63801;49.414;19.474;2023-08-06T04:44:22;14.63;;;8.18;;
75218;SDS011;63801;49.414;19.474;2023-08-06T04:46:22;14.10;;;8.93;;
75218;SDS011;63801;49.414;19.474;2023-08-06T04:48:22;13.25;;;8.60;;
75218;SDS011;63801;49.414;19.474;2023-08-06T04:50:23;13.48;;;8.93;;
75218;SDS011;63801;49.414;19.474;2023-08-06T04:52:23;14.90;;;9.10;;
75218;SDS011;63801;49.414;19.474;2023-08-06T04:54:27;13.85;;;9.25;;
75218;SDS011;63801;49.414;19.474;2023-08-06T04:56:27;16.05;;;9.93;;
75218;SDS011;63801;49.414;19.474;2023-08-06T04:58:28;15.30;;;8.85;;
75218;SDS011;63801;49.414;19.474;2023-08-06T05:00:28;14.23;;;8.82;;
75218;SDS011;63801;49.414;19.474;2023-08-06T05:02:28;14.55;;;8.98;;
75218;SDS011;63801;49.414;19.474;2023-08-06T05:04:29;15.00;;;8.73;;
75218;SDS011;63801;49.414;19.474;2023-08-06T05:06:29;13.77;;;9.55;;
75218;SDS011;63801;49.414;19.474;2023-08-06T05:08:29;14.73;;;9.23;;
75218;SDS011;63801;49.414;19.474;2023-08-06T05:10:30;14.02;;;8.82;;
75218;SDS011;63801;49.414;19.474;2023-08-06T05:12:30;14.95;;;8.80;;
75218;SDS011;63801;49.414;19.474;2023-08-06T05:14:30;14.18;;;9.30;;
75218;SDS011;63801;49.414;19.474;2023-08-06T05:16:31;13.00;;;8.07;;
75218;SDS011;63801;49.414;19.474;2023-08-06T05:18:31;11.90;;;8.10;;
75218;SDS011;63801;49.414;19.474;2023-08-06T05:20:35;14.27;;;8.88;;
75218;SDS011;63801;49.414;19.474;2023-08-06T05:22:36;17.48;;;8.77;;
75218;SDS011;63801;49.414;19.474;2023-08-06T05:24:36;13.55;;;8.32;;
75218;SDS011;63801;49.414;19.474;2023-08-06T05:26:36;13.35;;;8.13;;
75218;SDS011;63801;49.414;19.474;2023-08-06T05:28:37;12.27;;;7.85;;
75218;SDS011;63801;49.414;19.474;2023-08-06T05:30:40;13.88;;;8.68;;
75218;SDS011;63801;49.414;19.474;2023-08-06T05:32:41;14.20;;;8.90;;
75218;SDS011;63801;49.414;19.474;2023-08-06T05:34:41;15.50;;;8.50;;
75218;SDS011;63801;49.414;19.474;2023-08-06T05:36:41;15.30;;;8.90;;
75218;SDS011;63801;49.414;19.474;2023-08-06T05:38:42;10.73;;;7.68;;
75218;SDS011;63801;49.414;19.474;2023-08-06T05:40:42;15.40;;;9.60;;
75218;SDS011;63801;49.414;19.474;2023-08-06T05:42:43;18.02;;;9.80;;
75218;SDS011;63801;49.414;19.474;2023-08-06T05:44:43;19.13;;;10.98;;
75218;SDS011;63801;49.414;19.474;2023-08-06T05:46:43;16.63;;;10.82;;
75218;SDS011;63801;49.414;19.474;2023-08-06T05:48:44;17.58;;;9.93;;
75218;SDS011;63801;49.414;19.474;2023-08-06T05:50:44;16.52;;;9.65;;
75218;SDS011;63801;49.414;19.474;2023-08-06T05:52:44;12.80;;;8.35;;
75218;SDS011;63801;49.414;19.474;2023-08-06T05:54:45;11.63;;;7.07;;
75218;SDS011;63801;49.414;19.474;2023-08-06T05:56:45;11.65;;;7.22;;
75218;SDS011;63801;49.414;19.474;2023-08-06T05:58:45;12.75;;;7.05;;
75218;SDS011;63801;49.414;19.474;2023-08-06T06:00:47;12.77;;;7.13;;
75218;SDS011;63801;49.414;19.474;2023-08-06T06:02:47;10.50;;;6.22;;
75218;SDS011;63801;49.414;19.474;2023-08-06T06:04:48;9.55;;;6.35;;
75218;SDS011;63801;49.414;19.474;2023-08-06T06:06:48;10.63;;;6.80;;
75218;SDS011;63801;49.414;19.474;2023-08-06T06:08:48;7.97;;;5.15;;
75218;SDS011;63801;49.414;19.474;2023-08-06T06:10:49;10.38;;;5.63;;
75218;SDS011;63801;49.414;19.474;2023-08-06T06:12:49;7.60;;;5.18;;
75218;SDS011;63801;49.414;19.474;2023-08-06T06:14:49;9.07;;;5.72;;
75218;SDS011;63801;49.414;19.474;2023-08-06T06:16:49;8.57;;;5.70;;
75218;SDS011;63801;49.414;19.474;2023-08-06T06:18:50;9.13;;;5.45;;
75218;SDS011;63801;49.414;19.474;2023-08-06T06:20:50;7.93;;;5.18;;
75218;SDS011;63801;49.414;19.474;2023-08-06T06:22:50;8.18;;;4.80;;
75218;SDS011;63801;49.414;19.474;2023-08-06T06:24:51;8.65;;;5.43;;
75218;SDS011;63801;49.414;19.474;2023-08-06T06:26:51;8.65;;;5.40;;
75218;SDS011;63801;49.414;19.474;2023-08-06T06:28:51;9.82;;;4.85;;
75218;SDS011;63801;49.414;19.474;2023-08-06T06:30:52;9.80;;;5.35;;
75218;SDS011;63801;49.414;19.474;2023-08-06T06:32:52;7.70;;;5.07;;
75218;SDS011;63801;49.414;19.474;2023-08-06T06:34:53;9.50;;;5.70;;
75218;SDS011;63801;49.414;19.474;2023-08-06T06:36:54;14.52;;;8.02;;
75218;SDS011;63801;49.414;19.474;2023-08-06T06:38:54;10.18;;;5.80;;
75218;SDS011;63801;49.414;19.474;2023-08-06T06:40:55;10.15;;;5.65;;
75218;SDS011;63801;49.414;19.474;2023-08-06T06:42:56;9.27;;;5.20;;
75218;SDS011;63801;49.414;19.474;2023-08-06T06:44:56;7.85;;;4.72;;
75218;SDS011;63801;49.414;19.474;2023-08-06T06:46:57;7.75;;;4.68;;
75218;SDS011;63801;49.414;19.474;2023-08-06T06:48:57;8.35;;;4.82;;
75218;SDS011;63801;49.414;19.474;2023-08-06T06:50:58;9.18;;;5.00;;
75218;SDS011;63801;49.414;19.474;2023-08-06T06:52:59;7.80;;;4.72;;
75218;SDS011;63801;49.414;19.474;2023-08-06T06:54:59;8.10;;;4.63;;
75218;SDS011;63801;49.414;19.474;2023-08-06T06:56:59;8.80;;;4.72;;
75218;SDS011;63801;49.414;19.474;2023-08-06T06:59:00;7.43;;;4.63;;
75218;SDS011;63801;49.414;19.474;2023-08-06T07:01:00;7.68;;;4.90;;
75218;SDS011;63801;49.414;19.474;2023-08-06T07:03:00;8.60;;;4.22;;
75218;SDS011;63801;49.414;19.474;2023-08-06T07:05:01;6.40;;;3.90;;
75218;SDS011;63801;49.414;19.474;2023-08-06T07:07:01;6.80;;;3.90;;
75218;SDS011;63801;49.414;19.474;2023-08-06T07:09:01;6.00;;;3.85;;
75218;SDS011;63801;49.414;19.474;2023-08-06T07:11:05;6.82;;;3.80;;
75218;SDS011;63801;49.414;19.474;2023-08-06T07:13:06;6.00;;;3.33;;
75218;SDS011;63801;49.414;19.474;2023-08-06T07:15:06;5.45;;;3.22;;
75218;SDS011;63801;49.414;19.474;2023-08-06T07:17:07;6.10;;;3.70;;
75218;SDS011;63801;49.414;19.474;2023-08-06T07:19:07;6.13;;;3.70;;
75218;SDS011;63801;49.414;19.474;2023-08-06T07:21:07;4.57;;;2.90;;
75218;SDS011;63801;49.414;19.474;2023-08-06T07:23:08;6.38;;;3.60;;
75218;SDS011;63801;49.414;19.474;2023-08-06T07:25:08;4.97;;;3.30;;
75218;SDS011;63801;49.414;19.474;2023-08-06T07:27:08;4.38;;;3.22;;
75218;SDS011;63801;49.414;19.474;2023-08-06T07:29:09;6.18;;;3.80;;
75218;SDS011;63801;49.414;19.474;2023-08-06T07:31:09;6.63;;;3.40;;
75218;SDS011;63801;49.414;19.474;2023-08-06T07:33:10;5.45;;;3.63;;
75218;SDS011;63801;49.414;19.474;2023-08-06T07:35:10;5.82;;;3.65;;
75218;SDS011;63801;49.414;19.474;2023-08-06T07:37:12;7.95;;;4.10;;
75218;SDS011;63801;49.414;19.474;2023-08-06T07:39:12;6.05;;;3.88;;
75218;SDS011;63801;49.414;19.474;2023-08-06T07:41:13;7.13;;;4.05;;
75218;SDS011;63801;49.414;19.474;2023-08-06T07:43:13;5.53;;;3.80;;
75218;SDS011;63801;49.414;19.474;2023-08-06T07:45:13;6.88;;;3.90;;
75218;SDS011;63801;49.414;19.474;2023-08-06T07:47:14;5.47;;;3.70;;
75218;SDS011;63801;49.414;19.474;2023-08-06T07:49:14;8.40;;;3.80;;
75218;SDS011;63801;49.414;19.474;2023-08-06T07:51:14;6.18;;;3.88;;
75218;SDS011;63801;49.414;19.474;2023-08-06T07:53:15;6.93;;;3.95;;
75218;SDS011;63801;49.414;19.474;2023-08-06T07:55:15;5.55;;;3.40;;
75218;SDS011;63801;49.414;19.474;2023-08-06T07:57:16;5.47;;;3.72;;
75218;SDS011;63801;49.414;19.474;2023-08-06T07:59:16;6.35;;;3.60;;
75218;SDS011;63801;49.414;19.474;2023-08-06T08:01:17;5.47;;;3.80;;
75218;SDS011;63801;49.414;19.474;2023-08-06T08:03:17;7.05;;;3.50;;
75218;SDS011;63801;49.414;19.474;2023-08-06T08:05:17;7.00;;;4.22;;
75218;SDS011;63801;49.414;19.474;2023-08-06T08:07:18;4.25;;;3.15;;
75218;SDS011;63801;49.414;19.474;2023-08-06T08:09:18;5.40;;;3.72;;
75218;SDS011;63801;49.414;19.474;2023-08-06T08:11:19;6.85;;;3.88;;
75218;SDS011;63801;49.414;19.474;2023-08-06T08:13:20;8.35;;;3.60;;
75218;SDS011;63801;49.414;19.474;2023-08-06T08:15:20;5.28;;;3.50;;
75218;SDS011;63801;49.414;19.474;2023-08-06T08:17:21;5.68;;;3.85;;
75218;SDS011;63801;49.414;19.474;2023-08-06T08:19:21;6.82;;;3.78;;
75218;SDS011;63801;49.414;19.474;2023-08-06T08:21:21;6.05;;;3.60;;
75218;SDS011;63801;49.414;19.474;2023-08-06T08:23:24;5.40;;;3.40;;
75218;SDS011;63801;49.414;19.474;2023-08-06T08:25:24;5.63;;;3.83;;
75218;SDS011;63801;49.414;19.474;2023-08-06T08:27:24;4.85;;;2.97;;
75218;SDS011;63801;49.414;19.474;2023-08-06T08:29:26;5.68;;;3.50;;
75218;SDS011;63801;49.414;19.474;2023-08-06T08:31:26;5.05;;;3.45;;
75218;SDS011;63801;49.414;19.474;2023-08-06T08:33:28;5.40;;;3.38;;
75218;SDS011;63801;49.414;19.474;2023-08-06T08:35:28;5.60;;;3.33;;
75218;SDS011;63801;49.414;19.474;2023-08-06T08:37:29;4.85;;;3.10;;
75218;SDS011;63801;49.414;19.474;2023-08-06T08:39:29;4.22;;;2.90;;
75218;SDS011;63801;49.414;19.474;2023-08-06T08:41:29;3.83;;;2.65;;
75218;SDS011;63801;49.414;19.474;2023-08-06T08:43:31;4.43;;;2.95;;
75218;SDS011;63801;49.414;19.474;2023-08-06T08:45:31;5.05;;;3.17;;
75218;SDS011;63801;49.414;19.474;2023-08-06T08:47:38;4.20;;;2.97;;
75218;SDS011;63801;49.414;19.474;2023-08-06T08:49:39;5.60;;;3.03;;
75218;SDS011;63801;49.414;19.474;2023-08-06T08:51:41;5.72;;;3.03;;
75218;SDS011;63801;49.414;19.474;2023-08-06T08:53:43;4.75;;;3.20;;
75218;SDS011;63801;49.414;19.474;2023-08-06T08:55:46;3.78;;;2.92;;
75218;SDS011;63801;49.414;19.474;2023-08-06T08:57:48;4.50;;;2.83;;
75218;SDS011;63801;49.414;19.474;2023-08-06T08:59:48;4.05;;;2.63;;
75218;SDS011;63801;49.414;19.474;2023-08-06T09:01:48;4.68;;;2.58;;
75218;SDS011;63801;49.414;19.474;2023-08-06T09:03:52;5.03;;;2.90;;
75218;SDS011;63801;49.414;19.474;2023-08-06T09:05:54;4.95;;;2.60;;
75218;SDS011;63801;49.414;19.474;2023-08-06T09:08:01;4.72;;;3.00;;
75218;SDS011;63801;49.414;19.474;2023-08-06T09:10:03;5.65;;;3.20;;
75218;SDS011;63801;49.414;19.474;2023-08-06T09:12:22;9.48;;;6.00;;
75218;SDS011;63801;49.414;19.474;2023-08-06T09:14:23;7.47;;;5.22;;
75218;SDS011;63801;49.414;19.474;2023-08-06T09:16:23;6.63;;;4.28;;
75218;SDS011;63801;49.414;19.474;2023-08-06T09:18:27;4.00;;;3.17;;
75218;SDS011;63801;49.414;19.474;2023-08-06T09:20:29;5.45;;;3.22;;
75218;SDS011;63801;49.414;19.474;2023-08-06T09:22:33;5.68;;;3.60;;
75218;SDS011;63801;49.414;19.474;2023-08-06T09:24:35;4.85;;;3.30;;
75218;SDS011;63801;49.414;19.474;2023-08-06T09:26:41;3.20;;;2.55;;
75218;SDS011;63801;49.414;19.474;2023-08-06T09:28:43;2.85;;;2.05;;
75218;SDS011;63801;49.414;19.474;2023-08-06T09:30:44;2.92;;;2.03;;
75218;SDS011;63801;49.414;19.474;2023-08-06T09:32:48;2.38;;;1.83;;
75218;SDS011;63801;49.414;19.474;2023-08-06T09:34:55;2.05;;;1.55;;
75218;SDS011;63801;49.414;19.474;2023-08-06T09:36:56;2.38;;;1.65;;
75218;SDS011;63801;49.414;19.474;2023-08-06T09:38:56;3.78;;;2.10;;
75218;SDS011;63801;49.414;19.474;2023-08-06T09:40:57;2.83;;;1.80;;
75218;SDS011;63801;49.414;19.474;2023-08-06T09:42:57;3.25;;;2.15;;
75218;SDS011;63801;49.414;19.474;2023-08-06T09:45:06;7.88;;;4.68;;
75218;SDS011;63801;49.414;19.474;2023-08-06T09:47:07;4.30;;;3.17;;
75218;SDS011;63801;49.414;19.474;2023-08-06T09:49:07;3.17;;;2.20;;
75218;SDS011;63801;49.414;19.474;2023-08-06T09:51:09;3.72;;;2.60;;
75218;SDS011;63801;49.414;19.474;2023-08-06T09:53:10;5.53;;;3.42;;
75218;SDS011;63801;49.414;19.474;2023-08-06T09:55:12;3.45;;;2.30;;
75218;SDS011;63801;49.414;19.474;2023-08-06T09:57:13;2.88;;;2.13;;
75218;SDS011;63801;49.414;19.474;2023-08-06T09:59:14;4.32;;;2.20;;
75218;SDS011;63801;49.414;19.474;2023-08-06T10:01:16;5.15;;;2.58;;
75218;SDS011;63801;49.414;19.474;2023-08-06T10:03:17;6.18;;;2.35;;
75218;SDS011;63801;49.414;19.474;2023-08-06T10:05:18;3.78;;;2.08;;
75218;SDS011;63801;49.414;19.474;2023-08-06T10:07:19;4.53;;;2.00;;
75218;SDS011;63801;49.414;19.474;2023-08-06T10:09:20;2.45;;;1.80;;
75218;SDS011;63801;49.414;19.474;2023-08-06T10:11:23;3.60;;;1.95;;
75218;SDS011;63801;49.414;19.474;2023-08-06T10:13:27;3.72;;;1.75;;
75218;SDS011;63801;49.414;19.474;2023-08-06T10:15:28;4.03;;;2.08;;
75218;SDS011;63801;49.414;19.474;2023-08-06T10:17:32;3.05;;;1.70;;
75218;SDS011;63801;49.414;19.474;2023-08-06T10:19:34;3.50;;;1.48;;
75218;SDS011;63801;49.414;19.474;2023-08-06T10:21:37;2.10;;;1.30;;
75218;SDS011;63801;49.414;19.474;2023-08-06T10:23:39;4.20;;;1.85;;
75218;SDS011;63801;49.414;19.474;2023-08-06T10:29:48;4.38;;;1.50;;
75218;SDS011;63801;49.414;19.474;2023-08-06T10:31:53;3.20;;;1.50;;
75218;SDS011;63801;49.414;19.474;2023-08-06T10:33:55;2.13;;;1.15;;
75218;SDS011;63801;49.414;19.474;2023-08-06T10:35:55;2.97;;;1.10;;
75218;SDS011;63801;49.414;19.474;2023-08-06T10:38:08;3.00;;;1.52;;
75218;SDS011;63801;49.414;19.474;2023-08-06T10:40:13;2.43;;;1.50;;
75218;SDS011;63801;49.414;19.474;2023-08-06T10:42:27;3.72;;;1.50;;
75218;SDS011;63801;49.414;19.474;2023-08-06T10:44:29;4.00;;;1.38;;
75218;SDS011;63801;49.414;19.474;2023-08-06T10:46:29;2.78;;;1.38;;
75218;SDS011;63801;49.414;19.474;2023-08-06T10:48:39;2.40;;;0.93;;
75218;SDS011;63801;49.414;19.474;2023-08-06T10:50:41;0.30;;;0.20;;
75218;SDS011;63801;49.414;19.474;2023-08-06T10:52:45;2.20;;;0.22;;
75218;SDS011;63801;49.414;19.474;2023-08-06T10:54:46;0.98;;;0.20;;
75218;SDS011;63801;49.414;19.474;2023-08-06T10:56:47;0.70;;;0.10;;
75218;SDS011;63801;49.414;19.474;2023-08-06T10:58:48;0.10;;;0.05;;
75218;SDS011;63801;49.414;19.474;2023-08-06T11:00:49;0.40;;;0.10;;
75218;SDS011;63801;49.414;19.474;2023-08-06T11:02:51;0.30;;;0.10;;
75218;SDS011;63801;49.414;19.474;2023-08-06T11:04:52;0.50;;;0.20;;
75218;SDS011;63801;49.414;19.474;2023-08-06T11:06:52;1.65;;;0.45;;
75218;SDS011;63801;49.414;19.474;2023-08-06T11:08:54;2.17;;;1.23;;
75218;SDS011;63801;49.414;19.474;2023-08-06T11:10:55;2.63;;;0.30;;
75218;SDS011;63801;49.414;19.474;2023-08-06T11:13:00;0.35;;;0.20;;
75218;SDS011;63801;49.414;19.474;2023-08-06T11:15:02;2.30;;;1.15;;
75218;SDS011;63801;49.414;19.474;2023-08-06T11:17:03;7.72;;;2.80;;
75218;SDS011;63801;49.414;19.474;2023-08-06T11:19:07;2.05;;;1.25;;
75218;SDS011;63801;49.414;19.474;2023-08-06T11:21:08;3.78;;;2.05;;
75218;SDS011;63801;49.414;19.474;2023-08-06T11:23:09;5.68;;;2.45;;
75218;SDS011;63801;49.414;19.474;2023-08-06T11:25:10;4.53;;;1.77;;
75218;SDS011;63801;49.414;19.474;2023-08-06T11:27:11;2.13;;;1.08;;
75218;SDS011;63801;49.414;19.474;2023-08-06T11:31:23;1.65;;;0.30;;
75218;SDS011;63801;49.414;19.474;2023-08-06T11:33:24;0.73;;;0.22;;
75218;SDS011;63801;49.414;19.474;2023-08-06T11:35:25;2.38;;;1.10;;
75218;SDS011;63801;49.414;19.474;2023-08-06T11:37:26;3.45;;;1.00;;
75218;SDS011;63801;49.414;19.474;2023-08-06T11:39:26;2.65;;;1.15;;
75218;SDS011;63801;49.414;19.474;2023-08-06T11:41:30;3.20;;;1.50;;
75218;SDS011;63801;49.414;19.474;2023-08-06T11:43:31;3.03;;;1.42;;
75218;SDS011;63801;49.414;19.474;2023-08-06T11:45:31;1.95;;;0.50;;
75218;SDS011;63801;49.414;19.474;2023-08-06T11:47:37;0.88;;;0.60;;
75218;SDS011;63801;49.414;19.474;2023-08-06T11:49:47;0.52;;;0.20;;
75218;SDS011;63801;49.414;19.474;2023-08-06T11:51:48;1.48;;;0.30;;
75218;SDS011;63801;49.414;19.474;2023-08-06T11:53:49;0.22;;;0.22;;
75218;SDS011;63801;49.414;19.474;2023-08-06T11:55:50;0.00;;;0.00;;
75218;SDS011;63801;49.414;19.474;2023-08-06T11:57:51;0.50;;;0.10;;
75218;SDS011;63801;49.414;19.474;2023-08-06T11:59:53;1.58;;;0.30;;
75218;SDS011;63801;49.414;19.474;2023-08-06T12:01:53;0.95;;;0.57;;
75218;SDS011;63801;49.414;19.474;2023-08-06T12:03:58;2.95;;;0.57;;
75218;SDS011;63801;49.414;19.474;2023-08-06T12:05:59;0.65;;;0.30;;
75218;SDS011;63801;49.414;19.474;2023-08-06T12:08:00;1.60;;;0.90;;